New York, NY

5:32 PM EDT on August 27, 2014 (GMT -0400)
Murray Hill | Change Station
CLOSE
Current Station
Personal Weather Station
Location: New York, NY
Elevation: 98 ft
Nearby Weather Stations

Elev 98 ft 40.75 °N, 73.98 °W | Updated 1 second ago

Clear
Clear
86.4 °F
Feels Like 89 °F
N
3.0
Wind Variable Wind from SE
Gusts 9.0 mph

Today
High -- | Low -- °F
--% Chance of Precip.
Yesterday
High -- | Low -- °F
Precip. -- in
6:18 AM 7:36 PM
Waxing Crescent, 5% visible
Pressure 29.88 in
Visibility 10.0 miles
Clouds Clear
Heat Index 89 °F
Dew Point 67 °F
Humidity 53%
Rainfall 0.00 in
Snow Depth Not available.
UV 3 out of 12
Pollen 10.00 out of 12
Ozone Unhealthy for Sensitive Groups
PM2.5 Moderate
Flu Activity Not available.
METAR KNYC 272051Z AUTO 17007KT 140V230 10SM CLR 31/17 A2991 RMK AO2 SLP119 T03060172 56018

More Conditions Fewer Conditions

Pressure 29.88 in
Visibility 10.0 miles
Clouds Clear
Heat Index 89 °F
Dew Point 67 °F
Humidity 53%
Rainfall 0.00 in
Snow Depth Not available.
UV 3 out of 12
Pollen 10.00 out of 12
Ozone Unhealthy for Sensitive Groups
PM2.5 Moderate
Flu Activity Not available.
METAR KNYC 272051Z AUTO 17007KT 140V230 10SM CLR 31/17 A2991 RMK AO2 SLP119 T03060172 56018

More Conditions Fewer Conditions

10-Day Weather Forecast

Almanac

Astronomy

Aug. 27, 2014 Rise Set
Actual Time 6:18 AM EDT 7:36 PM EDT
Civil Twilight 5:49 AM EDT 8:04 PM EDT
Nautical Twilight 5:15 AM EDT 8:38 PM EDT
Astronomical Twilight 4:39 AM EDT 9:14 PM EDT
Moon 8:12 AM EDT 8:25 PM EDT
Length of Visible Light 14h 15m
Length of Day
13h 18m
Tomorrow will be 2m 33s shorter.
Waxing Crescent, 5% of the Moon is Illuminated
Today
Waxing Crescent
Sep 2
First Quarter
Sep 8
Full
Sep 15
Last Quarter
Sep 24
New

Today's Extremes

State Highs State Lows

Community

WunderPhotos

Upload Photos

1,747,791 photos uploaded!

Nearby

Air Quality

  Air Quality AQ Index Pollutant
Yesterday Good
OZONE
Yesterday Good
PM2.5
Current Unhealthy for Sensitive Groups
OZONE
Current Moderate
PM2.5
Wednesday Moderate
OZONE
Wednesday Moderate
PM2.5
Thursday Good
OZONE
Thursday Good
PM2.5

Snow Depth

Station Depth Elevation
No new snow has been reported.

Earthquake Activity

City Distance Mag. Time & Date
No recent earthquake activity has been reported nearby.
Minimum magnitude displayed is 2.5.

Coastal Water Temperatures

Place Temperature
Sandy Hook, NJ 75.9 °F
The Battery, NY 75.0 °F
Bergen Point West Reach, NJ 75.9 °F
Kings Point, NY 75.0 °F

Nearby Weather Stations